createdAt,value
2023-05-05T00:00:00.175Z,24.10
2023-05-05T00:02:26.968Z,24.11
2023-05-05T00:04:53.811Z,24.11
2023-05-05T00:07:20.719Z,24.10
2023-05-05T00:09:47.457Z,24.13
2023-05-05T00:12:14.162Z,24.11
2023-05-05T00:14:41.406Z,24.07
2023-05-05T00:17:08.165Z,24.07
2023-05-05T00:19:34.938Z,24.07
2023-05-05T00:22:01.647Z,24.08
2023-05-05T00:24:28.390Z,24.05
2023-05-05T00:26:55.133Z,24.07
2023-05-05T00:29:21.897Z,24.05
2023-05-05T00:31:51.322Z,24.06
2023-05-05T00:34:18.131Z,24.04
2023-05-05T00:36:44.899Z,24.05
2023-05-05T00:39:11.705Z,24.06
2023-05-05T00:41:38.461Z,24.06
2023-05-05T00:44:05.308Z,24.05
2023-05-05T00:46:32.094Z,24.04
2023-05-05T00:48:58.837Z,24.05
2023-05-05T00:51:25.652Z,24.07
2023-05-05T00:53:52.349Z,24.05
2023-05-05T00:56:19.520Z,24.04
2023-05-05T00:58:46.324Z,24.06
2023-05-05T01:01:13.591Z,24.04
2023-05-05T01:03:40.628Z,24.05
2023-05-05T01:06:35.695Z,24.05
2023-05-05T01:09:14.476Z,24.05
2023-05-05T01:12:06.241Z,24.04
2023-05-05T01:14:38.800Z,24.02
2023-05-05T01:17:22.014Z,24.03
2023-05-05T01:19:54.584Z,24.03
2023-05-05T01:22:24.348Z,24.05
2023-05-05T01:25:23.632Z,24.04
2023-05-05T01:28:19.352Z,24.03
2023-05-05T01:30:57.812Z,24.03
2023-05-05T01:33:25.791Z,24.01
2023-05-05T01:35:54.004Z,24.01
2023-05-05T01:38:34.698Z,24.02
2023-05-05T01:41:05.121Z,24.02
2023-05-05T01:43:32.760Z,24.01
2023-05-05T01:45:59.632Z,24.00
2023-05-05T01:48:26.397Z,24.03
2023-05-05T01:50:53.389Z,24.03
2023-05-05T01:53:20.246Z,24.00
2023-05-05T01:55:47.043Z,24.02
2023-05-05T01:58:13.844Z,24.01
2023-05-05T02:00:40.721Z,24.02
2023-05-05T02:03:10.782Z,24.00
2023-05-05T02:05:38.629Z,24.03
2023-05-05T02:08:05.627Z,23.99
2023-05-05T02:10:32.311Z,24.01
2023-05-05T02:12:59.838Z,23.99
2023-05-05T02:15:26.572Z,23.96
2023-05-05T02:17:53.335Z,23.99
2023-05-05T02:20:20.049Z,23.98
2023-05-05T02:22:46.964Z,23.98
2023-05-05T02:25:13.676Z,24.00
2023-05-05T02:27:41.736Z,24.00
2023-05-05T02:30:09.958Z,24.00
2023-05-05T02:32:41.269Z,23.99
2023-05-05T02:35:14.491Z,23.98
2023-05-05T02:37:46.854Z,23.98
2023-05-05T02:40:13.625Z,23.98
2023-05-05T02:42:41.509Z,23.97
2023-05-05T02:45:11.141Z,24.00
2023-05-05T02:47:38.289Z,23.98
2023-05-05T02:50:05.777Z,23.99
2023-05-05T02:52:32.918Z,23.97
2023-05-05T02:54:59.776Z,23.96
2023-05-05T02:57:41.280Z,23.94
2023-05-05T03:00:30.273Z,23.94
2023-05-05T03:03:06.288Z,23.95
2023-05-05T03:05:40.710Z,23.96
2023-05-05T03:08:14.106Z,23.95
2023-05-05T03:10:46.512Z,23.93
2023-05-05T03:13:13.484Z,23.96
2023-05-05T03:15:43.401Z,23.93
2023-05-05T03:18:10.236Z,23.94
2023-05-05T03:20:40.183Z,23.93
2023-05-05T03:23:07.242Z,23.98
2023-05-05T03:25:46.428Z,23.95
2023-05-05T03:28:14.250Z,23.93
2023-05-05T03:30:41.350Z,23.91
2023-05-05T03:33:09.892Z,23.91
2023-05-05T03:35:36.717Z,23.94
2023-05-05T03:38:03.459Z,23.94
2023-05-05T03:40:43.061Z,23.94
2023-05-05T03:43:11.933Z,23.92
2023-05-05T03:45:38.666Z,23.92
2023-05-05T03:48:06.133Z,23.91
2023-05-05T03:50:32.831Z,23.94
2023-05-05T03:52:59.530Z,23.91
2023-05-05T03:55:26.294Z,23.96
2023-05-05T03:57:53.027Z,23.92
2023-05-05T04:00:19.855Z,23.90
2023-05-05T04:02:46.668Z,23.87
2023-05-05T04:05:13.494Z,23.90
2023-05-05T04:07:40.197Z,23.89
2023-05-05T04:10:10.843Z,23.88
2023-05-05T04:12:37.674Z,23.90
2023-05-05T04:17:30.182Z,23.90
2023-05-05T04:19:56.929Z,23.89
2023-05-05T04:22:23.649Z,23.90
2023-05-05T04:24:50.322Z,23.89
2023-05-05T04:27:17.006Z,23.89
2023-05-05T04:29:43.666Z,23.89
2023-05-05T04:32:10.339Z,23.90
2023-05-05T04:34:37.008Z,23.92
2023-05-05T04:37:03.722Z,23.91
2023-05-05T04:39:30.442Z,23.87
2023-05-05T04:41:57.237Z,23.88
2023-05-05T04:44:24.059Z,23.89
2023-05-05T04:46:50.850Z,23.88
2023-05-05T04:49:17.650Z,23.88
2023-05-05T04:51:44.374Z,23.89
2023-05-05T04:54:11.156Z,23.85
2023-05-05T04:56:37.841Z,23.81
2023-05-05T04:59:04.508Z,23.84
2023-05-05T05:01:31.289Z,23.87
2023-05-05T05:03:58.068Z,23.87
2023-05-05T05:06:24.814Z,23.89
2023-05-05T05:08:51.470Z,23.88
2023-05-05T05:11:18.222Z,23.92
2023-05-05T05:13:44.896Z,23.90
2023-05-05T05:16:11.681Z,23.91
2023-05-05T05:18:38.463Z,23.93
2023-05-05T05:21:05.259Z,23.94
2023-05-05T05:23:32.041Z,23.95
2023-05-05T05:25:58.793Z,23.98
2023-05-05T05:28:25.509Z,24.00
2023-05-05T05:30:52.266Z,23.96
2023-05-05T05:33:18.971Z,23.95
2023-05-05T05:35:45.969Z,23.97
2023-05-05T05:38:12.761Z,23.96
2023-05-05T05:40:39.625Z,23.98
2023-05-05T05:43:06.315Z,23.97
2023-05-05T05:45:33.085Z,23.96
2023-05-05T05:47:59.873Z,23.98
2023-05-05T05:50:26.567Z,23.97
2023-05-05T05:52:53.301Z,23.99
2023-05-05T05:55:20.085Z,24.01
2023-05-05T07:23:44.889Z,24.27
2023-05-05T07:26:11.750Z,24.30
2023-05-05T07:28:38.617Z,24.28
2023-05-05T07:31:05.438Z,24.29
2023-05-05T07:33:32.153Z,24.28
2023-05-05T07:35:58.904Z,24.30
2023-05-05T07:38:25.628Z,24.34
2023-05-05T07:40:52.382Z,24.32
2023-05-05T07:43:19.122Z,24.32
2023-05-05T07:45:46.136Z,24.35
2023-05-05T07:48:12.877Z,24.35
2023-05-05T07:50:39.692Z,24.37
2023-05-05T07:53:14.308Z,24.34
2023-05-05T07:55:41.990Z,24.36
2023-05-05T07:58:08.779Z,24.37
2023-05-05T08:00:35.578Z,24.35
2023-05-05T08:03:02.392Z,24.34
2023-05-05T08:05:29.312Z,24.39
2023-05-05T08:07:56.032Z,24.35
2023-05-05T08:10:22.903Z,24.36
2023-05-05T08:12:49.674Z,24.34
2023-05-05T08:15:16.598Z,24.38
2023-05-05T08:17:44.716Z,24.39
2023-05-05T08:20:11.863Z,24.38
2023-05-05T08:22:38.568Z,24.40
2023-05-05T08:25:05.882Z,24.37
2023-05-05T08:27:32.855Z,24.37
2023-05-05T08:29:59.673Z,24.37
2023-05-05T08:32:27.853Z,24.36
2023-05-05T08:34:56.626Z,24.41
2023-05-05T08:37:23.360Z,24.44
2023-05-05T08:39:50.065Z,24.42
2023-05-05T08:42:28.973Z,24.38
2023-05-05T08:45:02.745Z,24.45
2023-05-05T08:47:32.468Z,24.42
2023-05-05T08:49:59.204Z,24.44
2023-05-05T08:52:25.997Z,24.42
2023-05-05T08:54:57.914Z,24.43
2023-05-05T08:57:38.767Z,24.41
2023-05-05T09:00:06.147Z,24.44
2023-05-05T09:02:32.937Z,24.45
2023-05-05T09:04:59.844Z,24.45
2023-05-05T09:07:26.623Z,24.47
2023-05-05T09:09:53.349Z,24.50
2023-05-05T09:12:20.171Z,24.53
2023-05-05T09:14:47.000Z,24.54
2023-05-05T09:17:26.465Z,24.57
2023-05-05T09:20:06.485Z,24.59
2023-05-05T09:22:43.488Z,24.61
2023-05-05T09:25:11.743Z,24.60
2023-05-05T09:27:40.276Z,24.61
2023-05-05T09:30:07.480Z,24.58
2023-05-05T09:32:44.846Z,24.61
2023-05-05T09:35:11.653Z,24.64
2023-05-05T09:37:38.327Z,24.62
2023-05-05T09:40:05.692Z,24.64
2023-05-05T09:42:32.404Z,24.69
2023-05-05T09:45:00.039Z,24.69
2023-05-05T09:47:36.711Z,24.73
2023-05-05T09:50:03.763Z,24.74
2023-05-05T09:52:30.570Z,24.72
2023-05-05T09:54:57.315Z,24.69
2023-05-05T09:57:33.018Z,24.68
2023-05-05T10:00:01.179Z,24.68
2023-05-05T10:02:32.114Z,24.65
2023-05-05T10:05:08.911Z,24.60
2023-05-05T10:07:36.266Z,24.59
2023-05-05T10:10:10.425Z,24.60
2023-05-05T10:12:37.437Z,24.58
2023-05-05T10:15:05.520Z,24.58
2023-05-05T10:17:33.238Z,24.56
2023-05-05T10:20:00.804Z,24.53
2023-05-05T10:22:28.950Z,24.54
2023-05-05T10:25:30.678Z,24.53
2023-05-05T10:28:00.005Z,24.55
2023-05-05T10:30:29.927Z,24.54
2023-05-05T10:33:30.927Z,24.54
2023-05-05T10:36:01.011Z,24.53
2023-05-05T10:38:29.284Z,24.55
2023-05-05T10:40:56.449Z,24.56
2023-05-05T10:43:23.287Z,24.56
2023-05-05T10:45:50.201Z,24.55
2023-05-05T10:48:24.716Z,24.55
2023-05-05T10:50:54.008Z,24.56
2023-05-05T10:53:29.134Z,24.54
2023-05-05T10:56:16.568Z,24.55
2023-05-05T10:58:55.463Z,24.55
2023-05-05T11:01:30.385Z,24.58
2023-05-05T11:04:24.180Z,24.59
2023-05-05T11:07:14.624Z,24.61
2023-05-05T11:09:57.969Z,24.59
2023-05-05T11:12:24.724Z,24.60
2023-05-05T14:11:17.890Z,25.83
2023-05-05T14:13:44.738Z,25.90
2023-05-05T14:16:11.464Z,25.94
2023-05-05T14:18:38.226Z,25.88
2023-05-05T14:21:04.965Z,25.89
2023-05-05T14:23:31.709Z,25.89
2023-05-05T14:25:58.437Z,25.78
2023-05-05T14:28:25.200Z,25.81
2023-05-05T14:30:51.993Z,25.83
2023-05-05T14:33:18.650Z,25.82
2023-05-05T14:35:45.381Z,25.93
2023-05-05T14:38:12.124Z,25.98
2023-05-05T14:40:38.858Z,25.99
2023-05-05T14:43:05.573Z,25.98
2023-05-05T14:45:32.363Z,26.12
2023-05-05T14:47:59.338Z,26.15
2023-05-05T14:50:26.123Z,26.18
2023-05-05T14:52:52.868Z,26.30
2023-05-05T14:55:19.842Z,26.34
2023-05-05T14:57:46.581Z,26.41
2023-05-05T15:00:13.741Z,26.51
2023-05-05T15:02:40.692Z,26.62
2023-05-05T15:05:08.204Z,26.75
2023-05-05T15:07:35.110Z,26.92
2023-05-05T15:10:01.856Z,27.10
2023-05-05T15:12:28.638Z,27.31
2023-05-05T15:14:55.401Z,27.48
2023-05-05T15:17:22.306Z,27.54
2023-05-05T15:19:49.057Z,27.74
2023-05-05T15:22:15.852Z,27.99
2023-05-05T15:24:42.583Z,28.03
2023-05-05T15:27:09.336Z,28.10
2023-05-05T15:29:36.008Z,28.37
2023-05-05T15:32:02.755Z,28.90
2023-05-05T15:34:29.657Z,29.68
2023-05-05T15:36:56.398Z,29.69
2023-05-05T15:39:23.181Z,30.94
2023-05-05T15:41:49.958Z,31.33
2023-05-05T15:44:16.653Z,31.40
2023-05-05T15:46:43.357Z,29.42
2023-05-05T15:49:10.118Z,28.28
2023-05-05T15:51:36.859Z,27.57
2023-05-05T15:54:03.643Z,27.09
2023-05-05T15:56:30.402Z,26.64
2023-05-05T15:58:57.203Z,26.42
2023-05-05T16:01:23.900Z,26.24
2023-05-05T16:03:50.671Z,26.09
2023-05-05T16:06:17.457Z,26.02
2023-05-05T16:08:46.639Z,26.03
2023-05-05T16:11:13.474Z,26.24
2023-05-05T16:13:40.293Z,26.67
2023-05-05T16:16:07.150Z,26.40
2023-05-05T16:18:33.974Z,26.21
2023-05-05T16:21:00.746Z,26.08
2023-05-05T16:23:27.561Z,26.04
2023-05-05T16:25:54.349Z,28.74
2023-05-05T16:28:21.034Z,28.16
2023-05-05T16:30:47.688Z,29.86
2023-05-05T16:33:14.367Z,30.32
2023-05-05T16:35:44.068Z,27.84
2023-05-05T16:38:11.231Z,27.07
2023-05-05T16:40:38.137Z,26.70
2023-05-05T16:43:04.977Z,26.66
2023-05-05T16:45:31.760Z,26.72
2023-05-05T16:47:58.525Z,26.56
2023-05-05T16:50:25.220Z,26.41
2023-05-05T16:52:52.090Z,26.39
2023-05-05T16:55:19.170Z,26.31
2023-05-05T16:57:45.834Z,26.23
2023-05-05T17:00:13.102Z,26.05
2023-05-05T17:02:39.913Z,26.11
2023-05-05T17:05:07.259Z,26.11
2023-05-05T17:07:34.189Z,26.09
2023-05-05T17:10:00.976Z,26.18
2023-05-05T17:12:27.695Z,26.33
2023-05-05T17:14:54.404Z,26.12
2023-05-05T17:17:21.213Z,26.05
2023-05-05T17:19:48.023Z,26.08
2023-05-05T17:22:14.770Z,26.09
2023-05-05T17:24:41.549Z,25.97
2023-05-05T17:27:08.376Z,25.88
2023-05-05T17:29:35.074Z,25.76
2023-05-05T17:32:02.021Z,25.74
2023-05-05T17:34:28.949Z,25.63
2023-05-05T17:36:55.716Z,25.57
2023-05-05T17:39:22.500Z,25.55
2023-05-05T17:41:49.277Z,25.59
2023-05-05T17:44:16.067Z,25.73
2023-05-05T17:46:42.774Z,25.59
2023-05-05T17:49:09.599Z,25.50
2023-05-05T17:51:36.338Z,25.52
2023-05-05T17:54:03.065Z,25.49
2023-05-05T17:56:29.879Z,25.46
2023-05-05T17:58:56.663Z,25.42
2023-05-05T18:01:24.003Z,25.38
2023-05-05T18:03:50.748Z,25.36
2023-05-05T18:06:17.564Z,25.35
2023-05-05T18:08:44.451Z,25.30
2023-05-05T18:11:11.238Z,25.22
2023-05-05T18:13:37.926Z,25.18
2023-05-05T18:16:05.002Z,25.18
2023-05-05T18:18:31.807Z,25.24
2023-05-05T18:20:58.578Z,25.23
2023-05-05T18:23:25.322Z,25.11
2023-05-05T18:25:52.106Z,25.08
2023-05-05T18:28:18.889Z,25.04
2023-05-05T18:30:45.661Z,24.97
2023-05-05T18:33:14.329Z,24.91
2023-05-05T18:35:41.106Z,24.91
2023-05-05T18:38:07.945Z,24.88
2023-05-05T18:40:34.713Z,24.84
2023-05-05T18:43:01.494Z,24.86
2023-05-05T18:45:28.212Z,24.85
2023-05-05T18:47:55.024Z,24.84
2023-05-05T18:50:21.987Z,24.84
2023-05-05T18:52:49.042Z,24.86
2023-05-05T18:55:15.821Z,24.83
2023-05-05T18:57:42.603Z,24.84
2023-05-05T19:00:10.262Z,24.82
2023-05-05T19:02:37.012Z,24.76
2023-05-05T19:05:04.059Z,24.80
2023-05-05T19:07:35.557Z,24.83
2023-05-05T19:10:04.050Z,24.77
2023-05-05T19:12:30.848Z,24.78
2023-05-05T19:14:57.560Z,24.77
2023-05-05T19:17:24.342Z,24.75
2023-05-05T19:19:51.067Z,24.76
2023-05-05T19:22:17.870Z,24.78
2023-05-05T19:24:44.570Z,24.71
2023-05-05T19:27:11.953Z,24.72
